createdAt,value
2022-09-23T00:01:23.135Z,68.90
2022-09-23T00:06:30.972Z,69.20
2022-09-23T00:08:57.698Z,69.10
2022-09-23T00:11:26.376Z,69.20
2022-09-23T00:13:57.631Z,69.40
2022-09-23T00:16:26.775Z,69.40
2022-09-23T00:18:53.518Z,69.40
2022-09-23T00:21:20.554Z,69.40
2022-09-23T00:23:47.402Z,70.40
2022-09-23T00:28:49.595Z,69.90
2022-09-23T00:34:24.149Z,70.00
2022-09-23T00:36:50.869Z,70.20
2022-09-23T00:47:55.982Z,70.20
2022-09-23T00:50:29.930Z,70.20
2022-09-23T00:52:57.987Z,70.30
2022-09-23T00:55:32.030Z,70.40
2022-09-23T00:57:59.269Z,70.60
2022-09-23T01:00:25.982Z,70.60
2022-09-23T01:02:53.045Z,70.70
2022-09-23T01:05:19.870Z,70.80
2022-09-23T01:07:49.720Z,70.80
2022-09-23T01:13:42.587Z,71.00
2022-09-23T01:16:12.415Z,71.10
2022-09-23T01:19:01.684Z,71.10
2022-09-23T01:22:16.737Z,71.30
2022-09-23T01:24:53.355Z,71.40
2022-09-23T01:27:56.775Z,71.30
2022-09-23T01:30:47.939Z,71.40
2022-09-23T01:33:20.587Z,71.60
2022-09-23T01:35:54.077Z,71.60
2022-09-23T01:38:30.327Z,71.30
2022-09-23T01:41:30.453Z,71.60
2022-09-23T01:44:02.680Z,71.60
2022-09-23T01:46:37.978Z,71.60
2022-09-23T01:49:20.402Z,71.80
2022-09-23T01:51:53.046Z,71.90
2022-09-23T01:54:25.673Z,71.80
2022-09-23T01:57:09.615Z,71.60
2022-09-23T01:59:57.883Z,71.80
2022-09-23T02:02:30.999Z,71.80
2022-09-23T02:05:13.456Z,71.90
2022-09-23T02:08:16.828Z,71.90
2022-09-23T02:10:46.123Z,72.00
2022-09-23T02:13:22.289Z,71.80
2022-09-23T02:15:51.085Z,72.00
2022-09-23T02:18:21.841Z,72.10
2022-09-23T02:20:48.549Z,72.30
2022-09-23T02:23:23.323Z,72.30
2022-09-23T02:26:09.003Z,72.40
2022-09-23T02:28:45.777Z,72.60
2022-09-23T02:31:28.069Z,72.60
2022-09-23T02:33:57.697Z,72.80
2022-09-23T02:36:24.378Z,72.80
2022-09-23T02:38:53.953Z,72.80
2022-09-23T02:41:23.527Z,73.00
2022-09-23T02:43:59.187Z,73.00
2022-09-23T02:46:26.066Z,73.30
2022-09-23T02:48:58.902Z,73.30
2022-09-23T02:51:25.675Z,73.40
2022-09-23T02:53:54.555Z,73.40
2022-09-23T02:56:21.308Z,73.50
2022-09-23T02:58:49.004Z,73.50
2022-09-23T03:01:15.738Z,73.60
2022-09-23T03:04:15.016Z,73.60
2022-09-23T03:07:03.620Z,73.70
2022-09-23T03:09:38.688Z,73.80
2022-09-23T03:12:09.936Z,74.70
2022-09-23T03:14:52.806Z,73.80
2022-09-23T03:17:26.369Z,74.10
2022-09-23T03:19:57.446Z,73.70
2022-09-23T03:22:46.060Z,73.90
2022-09-23T03:27:50.661Z,74.00
2022-09-23T03:32:52.859Z,74.20
2022-09-23T03:35:19.571Z,74.40
2022-09-23T03:37:57.788Z,74.40
2022-09-23T03:42:59.991Z,74.70
2022-09-23T03:45:28.932Z,74.70
2022-09-23T03:47:55.684Z,74.70
2022-09-23T03:50:22.411Z,74.80
2022-09-23T03:52:52.544Z,74.90
2022-09-23T03:55:21.904Z,75.10
2022-09-23T03:57:48.763Z,75.10
2022-09-23T04:00:15.973Z,75.20
2022-09-23T04:02:42.907Z,75.30
2022-09-23T04:05:10.480Z,75.40
2022-09-23T04:07:37.386Z,75.40
2022-09-23T04:10:05.262Z,75.40
2022-09-23T04:12:35.036Z,75.60
2022-09-23T04:15:01.906Z,75.60
2022-09-23T04:17:28.675Z,75.60
2022-09-23T04:19:55.403Z,75.70
2022-09-23T04:22:22.107Z,75.70
2022-09-23T04:24:48.885Z,75.70
2022-09-23T04:27:18.459Z,75.80
2022-09-23T04:32:23.249Z,75.80
2022-09-23T04:37:25.429Z,75.90
2022-09-23T04:39:52.157Z,75.90
2022-09-23T04:42:22.189Z,75.90
2022-09-23T04:44:49.019Z,76.10
2022-09-23T04:47:15.793Z,76.10
2022-09-23T04:49:42.558Z,76.20
2022-09-23T04:52:09.343Z,76.40
2022-09-23T04:54:36.155Z,76.40
2022-09-23T04:57:05.707Z,76.40
2022-09-23T04:59:35.811Z,76.60
2022-09-23T05:02:02.689Z,76.70
2022-09-23T05:04:29.650Z,76.70
2022-09-23T05:06:59.498Z,76.70
2022-09-23T05:09:33.248Z,76.80
2022-09-23T05:12:00.251Z,76.90
2022-09-23T05:14:27.438Z,76.80
2022-09-23T05:16:54.233Z,76.80
2022-09-23T05:19:21.074Z,76.90
2022-09-23T05:21:47.970Z,76.90
2022-09-23T05:24:17.980Z,76.90
2022-09-23T05:26:44.720Z,76.90
2022-09-23T05:33:20.905Z,76.90
2022-09-23T05:41:59.928Z,76.90
2022-09-23T05:44:26.966Z,76.90
2022-09-23T05:46:55.685Z,77.00
2022-09-23T05:49:33.018Z,77.10
2022-09-23T05:52:09.090Z,77.10
2022-09-23T05:54:36.548Z,77.20
2022-09-23T05:57:05.002Z,77.10
2022-09-23T05:59:32.066Z,77.20
2022-09-23T06:01:58.823Z,77.10
2022-09-23T06:04:25.511Z,77.10
2022-09-23T06:06:52.301Z,77.10
2022-09-23T06:09:19.054Z,77.20
2022-09-23T06:11:45.756Z,77.20
2022-09-23T06:14:13.086Z,77.30
2022-09-23T06:16:39.790Z,77.40
2022-09-23T06:19:07.152Z,77.30
2022-09-23T06:21:38.296Z,77.40
2022-09-23T06:24:05.616Z,77.60
2022-09-23T06:26:32.526Z,77.40
2022-09-23T06:31:34.595Z,78.40
2022-09-23T06:34:12.213Z,77.60
2022-09-23T06:36:45.755Z,77.80
2022-09-23T06:39:14.503Z,77.90
2022-09-23T06:41:41.310Z,78.00
2022-09-23T06:44:08.115Z,78.00
2022-09-23T06:46:41.071Z,78.00
2022-09-23T06:49:07.840Z,78.30
2022-09-23T06:51:34.493Z,78.20
2022-09-23T06:54:01.172Z,78.40
2022-09-23T06:56:27.885Z,78.50
2022-09-23T06:58:54.541Z,78.50
2022-09-23T07:01:21.367Z,78.70
2022-09-23T07:03:48.221Z,78.70
2022-09-23T07:06:15.060Z,78.70
2022-09-23T07:08:45.352Z,78.80
2022-09-23T07:11:12.078Z,79.00
2022-09-23T07:13:39.222Z,79.00
2022-09-23T07:16:06.155Z,79.10
2022-09-23T07:18:36.798Z,79.20
2022-09-23T07:21:11.828Z,79.20
2022-09-23T07:23:38.517Z,79.30
2022-09-23T07:26:05.649Z,79.20
2022-09-23T07:28:32.352Z,79.20
2022-09-23T07:31:35.449Z,79.20
2022-09-23T07:34:05.045Z,79.20
2022-09-23T07:36:31.790Z,79.10
2022-09-23T07:38:59.233Z,79.10
2022-09-23T07:41:26.202Z,80.00
2022-09-23T07:43:53.552Z,79.10
2022-09-23T07:46:20.298Z,79.30
2022-09-23T07:48:47.005Z,79.30
2022-09-23T07:51:18.749Z,79.50
2022-09-23T07:53:47.584Z,79.50
2022-09-23T07:56:14.339Z,79.50
2022-09-23T07:58:41.093Z,79.60
2022-09-23T08:01:09.399Z,79.70
2022-09-23T08:03:36.618Z,79.80
2022-09-23T08:06:08.169Z,79.80
2022-09-23T08:08:35.091Z,79.80
2022-09-23T08:11:05.244Z,79.80
2022-09-23T08:13:32.792Z,80.00
2022-09-23T08:15:59.734Z,80.00
2022-09-23T08:18:26.598Z,79.90
2022-09-23T08:20:53.401Z,80.00
2022-09-23T08:23:20.149Z,80.00
2022-09-23T08:25:47.137Z,79.90
2022-09-23T08:28:17.193Z,80.00
2022-09-23T08:30:44.537Z,80.10
2022-09-23T08:33:11.872Z,80.00
2022-09-23T08:35:38.584Z,80.00
2022-09-23T08:38:08.560Z,80.00
2022-09-23T08:40:39.422Z,80.10
2022-09-23T08:43:07.136Z,80.10
2022-09-23T08:45:34.266Z,80.10
2022-09-23T08:48:03.918Z,80.20
2022-09-23T08:50:42.330Z,81.10
2022-09-23T08:53:16.210Z,80.30
2022-09-23T08:55:46.572Z,80.40
2022-09-23T08:58:32.014Z,80.40
2022-09-23T09:01:10.157Z,80.60
2022-09-23T09:04:19.306Z,81.10
2022-09-23T09:07:24.493Z,80.30
2022-09-23T09:10:12.178Z,81.10
2022-09-23T09:12:52.588Z,80.30
2022-09-23T09:15:27.993Z,80.30
2022-09-23T09:18:12.895Z,80.20
2022-09-23T09:20:49.167Z,80.30
2022-09-23T09:26:48.746Z,80.30
2022-09-23T09:29:34.700Z,80.20
2022-09-23T09:32:20.540Z,80.30
2022-09-23T09:34:53.797Z,80.10
2022-09-23T09:37:36.087Z,80.30
2022-09-23T09:40:03.029Z,80.60
2022-09-23T09:42:40.327Z,80.40
2022-09-23T09:45:25.403Z,80.40
2022-09-23T09:48:02.421Z,80.20
2022-09-23T09:50:52.252Z,80.10
2022-09-23T09:53:25.677Z,80.00
2022-09-23T09:56:14.978Z,80.00
2022-09-23T09:58:47.929Z,79.90
2022-09-23T10:01:27.218Z,79.90
2022-09-23T10:06:44.448Z,80.50
2022-09-23T10:09:16.958Z,79.70
2022-09-23T10:11:43.842Z,80.00
2022-09-23T10:14:15.923Z,80.30
2022-09-23T10:16:42.727Z,80.50
2022-09-23T10:19:24.925Z,80.60
2022-09-23T10:21:56.531Z,80.80
2022-09-23T10:24:25.361Z,80.80
2022-09-23T10:26:56.051Z,80.80
2022-09-23T10:29:53.352Z,81.60
2022-09-23T10:32:36.093Z,80.90
2022-09-23T10:35:08.836Z,80.80
2022-09-23T10:37:38.814Z,80.80
2022-09-23T10:40:12.071Z,81.60
2022-09-23T10:42:59.969Z,80.70
2022-09-23T10:45:27.494Z,80.70
2022-09-23T10:48:00.282Z,80.60
2022-09-23T10:50:47.685Z,80.60
2022-09-23T10:53:38.479Z,80.80
2022-09-23T10:56:26.661Z,80.80
2022-09-23T10:59:31.237Z,80.80
2022-09-23T11:02:03.916Z,80.80
2022-09-23T11:04:39.812Z,80.60
2022-09-23T11:07:37.508Z,80.40
2022-09-23T11:10:44.884Z,80.40
2022-09-23T11:13:31.038Z,80.40
2022-09-23T11:16:23.432Z,80.40
2022-09-23T11:19:05.303Z,81.10
2022-09-23T11:21:50.964Z,80.20
2022-09-23T11:24:35.642Z,80.10
2022-09-23T11:27:23.773Z,79.90
2022-09-23T11:30:09.550Z,79.70
2022-09-23T11:32:58.916Z,79.30
2022-09-23T11:35:46.499Z,79.00
2022-09-23T11:38:21.495Z,78.70
2022-09-23T11:40:48.373Z,78.30
2022-09-23T11:43:22.904Z,78.00
2022-09-23T11:46:15.378Z,77.60
2022-09-23T11:48:48.235Z,77.50
2022-09-23T11:51:16.895Z,77.40
2022-09-23T11:53:51.645Z,77.10
2022-09-23T11:56:34.117Z,77.00
2022-09-23T11:59:17.624Z,76.90
2022-09-23T12:01:47.199Z,76.80
2022-09-23T12:04:31.604Z,76.90
2022-09-23T12:07:12.323Z,76.80
2022-09-23T12:09:57.613Z,76.60
2022-09-23T12:12:51.718Z,76.50
2022-09-23T12:15:33.501Z,76.30
2022-09-23T12:18:08.723Z,76.20
2022-09-23T12:20:58.540Z,76.30
2022-09-23T12:23:41.424Z,76.30
2022-09-23T12:26:08.854Z,77.20
2022-09-23T12:28:40.430Z,76.40
2022-09-23T12:31:12.695Z,76.40
2022-09-23T12:33:39.482Z,76.50
2022-09-23T12:36:07.614Z,76.40
2022-09-23T12:38:53.754Z,76.30
2022-09-23T12:41:23.449Z,76.10
2022-09-23T12:43:51.952Z,75.90
2022-09-23T12:46:28.021Z,75.80
2022-09-23T12:48:54.723Z,75.50
2022-09-23T12:51:21.447Z,75.50
2022-09-23T12:53:48.094Z,75.20
2022-09-23T12:56:16.800Z,75.00
2022-09-23T12:58:45.606Z,74.80
2022-09-23T13:01:15.210Z,74.10
2022-09-23T13:03:51.343Z,73.30
2022-09-23T13:06:18.083Z,73.20
2022-09-23T13:08:45.369Z,73.30
2022-09-23T13:11:29.006Z,73.50
2022-09-23T13:13:59.128Z,73.30
2022-09-23T13:16:26.008Z,73.70
2022-09-23T13:18:56.018Z,73.70
2022-09-23T13:21:44.510Z,73.80
2022-09-23T13:24:17.404Z,73.40
2022-09-23T13:26:52.956Z,73.30
2022-09-23T13:29:25.766Z,73.30
2022-09-23T13:31:52.656Z,72.70
2022-09-23T13:34:21.681Z,69.50
2022-09-23T13:36:49.080Z,66.30
2022-09-23T13:39:26.670Z,64.20
2022-09-23T13:41:55.023Z,62.50
2022-09-23T13:44:21.855Z,62.60
2022-09-23T13:46:52.808Z,62.80
2022-09-23T13:49:24.697Z,63.00
2022-09-23T13:51:55.513Z,63.50
2022-09-23T13:54:36.413Z,64.10
2022-09-23T13:57:03.449Z,64.40
2022-09-23T13:59:33.856Z,64.60
2022-09-23T14:02:13.367Z,64.20
2022-09-23T14:04:40.303Z,63.90
2022-09-23T14:07:16.309Z,64.20
2022-09-23T14:09:49.639Z,64.00
2022-09-23T14:12:16.376Z,63.90
2022-09-23T14:14:43.081Z,63.90
2022-09-23T14:17:09.760Z,63.80
2022-09-23T14:19:43.923Z,64.00
2022-09-23T14:22:29.682Z,64.10
2022-09-23T14:24:56.534Z,63.80
2022-09-23T14:27:28.975Z,64.20
2022-09-23T14:29:55.670Z,64.40
2022-09-23T14:32:23.329Z,64.70
2022-09-23T14:35:02.006Z,64.90
2022-09-23T14:37:29.959Z,64.90
2022-09-23T14:39:57.897Z,65.10
2022-09-23T14:42:24.676Z,64.90
2022-09-23T14:44:51.399Z,64.70
2022-09-23T14:47:18.095Z,64.20
2022-09-23T14:49:48.819Z,63.50
2022-09-23T14:52:15.517Z,63.10
2022-09-23T14:54:48.273Z,63.00
2022-09-23T14:57:25.526Z,63.30
2022-09-23T14:59:59.664Z,63.60
2022-09-23T15:02:40.014Z,64.00
2022-09-23T15:05:13.929Z,64.40
2022-09-23T15:07:40.651Z,64.80
2022-09-23T15:10:08.728Z,65.10
2022-09-23T15:12:35.616Z,65.20
2022-09-23T15:15:02.377Z,65.10
2022-09-23T15:17:35.716Z,65.10
2022-09-23T15:20:17.263Z,65.10
2022-09-23T15:22:49.381Z,64.80
2022-09-23T15:25:18.654Z,64.80
2022-09-23T15:28:02.678Z,64.80
2022-09-23T15:30:29.592Z,64.70
2022-09-23T15:33:13.696Z,64.80
2022-09-23T15:35:42.579Z,64.90
2022-09-23T15:38:09.302Z,64.70
2022-09-23T15:40:36.801Z,64.40
2022-09-23T15:43:20.709Z,63.90
2022-09-23T15:45:52.764Z,63.50
2022-09-23T15:48:21.316Z,63.50
2022-09-23T15:50:48.551Z,63.40
2022-09-23T15:53:17.156Z,63.10
2022-09-23T15:55:43.909Z,62.80
2022-09-23T15:58:10.894Z,62.40
2022-09-23T16:00:37.656Z,62.20
2022-09-23T16:03:04.878Z,62.20
2022-09-23T16:05:34.630Z,62.10
2022-09-23T16:08:05.022Z,62.30
2022-09-23T16:10:35.379Z,62.60
2022-09-23T16:13:02.934Z,62.80
2022-09-23T16:15:30.775Z,62.90
2022-09-23T16:17:58.133Z,63.20
2022-09-23T16:20:25.814Z,63.50
2022-09-23T16:23:27.551Z,63.70
2022-09-23T16:25:54.303Z,63.70
2022-09-23T16:28:20.966Z,64.00
2022-09-23T16:30:47.767Z,64.20
2022-09-23T16:33:14.554Z,65.00
2022-09-23T16:35:41.306Z,64.30
2022-09-23T16:38:08.854Z,64.50
2022-09-23T16:40:35.585Z,64.70
2022-09-23T16:43:02.502Z,64.80
2022-09-23T16:45:29.262Z,64.90
2022-09-23T16:47:55.997Z,65.00
2022-09-23T16:50:23.455Z,65.20
2022-09-23T16:52:52.294Z,65.40
2022-09-23T16:55:19.074Z,65.50
2022-09-23T16:57:45.818Z,65.60
2022-09-23T17:00:14.468Z,65.80
2022-09-23T17:02:41.471Z,66.10
2022-09-23T17:05:08.585Z,65.90
2022-09-23T17:07:35.326Z,66.10
2022-09-23T17:10:02.270Z,66.20
2022-09-23T17:12:32.226Z,66.20
2022-09-23T17:14:58.908Z,66.40
2022-09-23T17:17:25.579Z,66.50
2022-09-23T17:19:52.227Z,66.70
2022-09-23T17:22:19.252Z,66.80
2022-09-23T17:24:46.070Z,67.00
2022-09-23T17:27:12.939Z,67.10
2022-09-23T17:29:39.985Z,67.40
2022-09-23T17:32:06.698Z,67.60
2022-09-23T17:34:33.693Z,67.70
2022-09-23T17:37:00.875Z,68.00
2022-09-23T17:39:27.539Z,68.10
2022-09-23T17:41:54.229Z,68.30
2022-09-23T17:44:20.956Z,68.40
2022-09-23T17:46:47.819Z,68.70
2022-09-23T17:49:14.524Z,68.80
2022-09-23T17:51:41.471Z,69.00
2022-09-23T17:54:08.224Z,69.20
2022-09-23T17:56:34.974Z,69.30
2022-09-23T17:59:01.827Z,69.50
2022-09-23T18:01:28.691Z,69.70
2022-09-23T18:03:56.405Z,69.90
2022-09-23T18:06:24.375Z,70.00
2022-09-23T18:08:51.306Z,70.10
2022-09-23T18:11:25.400Z,70.00
2022-09-23T18:13:56.441Z,70.10
2022-09-23T18:16:25.418Z,70.20
2022-09-23T18:18:59.618Z,70.20
2022-09-23T18:21:28.442Z,70.30
2022-09-23T18:23:59.803Z,70.30
2022-09-23T18:26:33.536Z,70.30
2022-09-23T18:34:53.668Z,70.40
2022-09-23T18:37:20.431Z,70.30
2022-09-23T18:42:32.062Z,70.30
2022-09-23T18:44:58.844Z,70.20
2022-09-23T18:47:25.546Z,70.20
2022-09-23T18:49:54.837Z,70.20
2022-09-23T18:55:43.873Z,70.10
2022-09-23T18:58:10.548Z,70.10
2022-09-23T19:00:37.276Z,70.10
2022-09-23T19:03:04.218Z,70.10
2022-09-23T19:05:33.516Z,70.10
2022-09-23T19:08:00.282Z,70.00
2022-09-23T19:10:26.954Z,69.80
2022-09-23T19:12:53.687Z,69.80
2022-09-23T19:15:20.443Z,69.80
2022-09-23T19:17:47.127Z,69.90
2022-09-23T19:20:13.801Z,70.00
2022-09-23T19:22:40.515Z,70.00
2022-09-23T19:25:07.870Z,70.00
2022-09-23T19:27:34.651Z,70.00
2022-09-23T19:30:04.279Z,69.90
2022-09-23T19:32:31.016Z,69.90
2022-09-23T19:34:57.701Z,69.90
2022-09-23T19:37:24.416Z,69.90
2022-09-23T19:39:51.074Z,69.90
2022-09-23T19:42:17.817Z,69.80
2022-09-23T19:44:44.464Z,69.70
2022-09-23T19:47:14.321Z,69.70
2022-09-23T19:49:41.140Z,69.70
2022-09-23T19:52:07.822Z,69.70
2022-09-23T19:54:34.508Z,69.60
2022-09-23T19:57:01.222Z,69.50
2022-09-23T19:59:27.910Z,69.50
2022-09-23T20:01:54.773Z,69.60
2022-09-23T20:04:21.775Z,69.50
2022-09-23T20:06:48.460Z,69.60
2022-09-23T20:09:15.164Z,69.70
2022-09-23T20:11:41.898Z,69.70
2022-09-23T20:14:10.317Z,69.90
2022-09-23T20:16:37.428Z,69.90
2022-09-23T20:19:04.629Z,69.90
2022-09-23T20:21:31.908Z,70.00
2022-09-23T20:23:58.946Z,70.10
2022-09-23T20:26:25.759Z,70.10
2022-09-23T20:28:52.680Z,70.20
2022-09-23T20:31:19.721Z,70.30
2022-09-23T20:33:50.773Z,70.40
2022-09-23T20:36:20.279Z,70.40
2022-09-23T20:38:46.997Z,70.50
2022-09-23T20:41:13.661Z,70.50
2022-09-23T20:43:40.523Z,70.50
2022-09-23T20:46:07.242Z,70.50
2022-09-23T20:48:34.027Z,70.70
2022-09-23T20:51:04.728Z,70.70
2022-09-23T20:53:31.550Z,70.70
2022-09-23T20:55:58.406Z,70.80
2022-09-23T20:58:29.455Z,70.70
2022-09-23T21:01:06.791Z,70.90
2022-09-23T21:03:33.527Z,71.00
2022-09-23T21:06:01.428Z,70.90
2022-09-23T21:08:28.101Z,71.00
2022-09-23T21:10:58.625Z,71.00
2022-09-23T21:13:25.315Z,71.00
2022-09-23T21:15:52.084Z,71.00
2022-09-23T21:18:22.393Z,71.10
2022-09-23T21:20:58.982Z,71.10
2022-09-23T21:23:26.905Z,71.30
2022-09-23T21:26:00.414Z,71.30
2022-09-23T21:28:30.139Z,71.30
2022-09-23T21:31:11.122Z,71.30
2022-09-23T21:33:37.836Z,71.20
2022-09-23T21:36:05.886Z,71.20
2022-09-23T21:38:38.195Z,71.30
2022-09-23T21:41:06.721Z,71.30
2022-09-23T21:43:34.633Z,71.40
2022-09-23T21:46:02.865Z,71.40
2022-09-23T21:48:30.374Z,71.50
2022-09-23T21:50:58.377Z,71.60
2022-09-23T21:53:25.350Z,71.80
2022-09-23T21:55:52.360Z,71.80
2022-09-23T21:58:19.058Z,71.90
2022-09-23T22:00:45.863Z,72.00
2022-09-23T22:03:12.687Z,72.10
2022-09-23T22:05:39.378Z,72.10
2022-09-23T22:08:06.070Z,72.10
2022-09-23T22:10:32.726Z,72.10
2022-09-23T22:12:59.433Z,72.20
2022-09-23T22:15:26.090Z,72.20
2022-09-23T22:17:53.669Z,72.30
2022-09-23T22:20:20.339Z,72.40
2022-09-23T22:22:47.031Z,72.30
2022-09-23T22:25:13.857Z,72.30
2022-09-23T22:27:40.596Z,72.20
2022-09-23T22:30:09.416Z,72.10
2022-09-23T22:32:36.107Z,72.20
2022-09-23T22:35:03.056Z,72.10
2022-09-23T22:37:31.582Z,72.10
2022-09-23T22:39:58.305Z,72.20
2022-09-23T22:42:24.992Z,72.20
2022-09-23T22:44:51.833Z,72.20
2022-09-23T22:47:19.234Z,72.20
2022-09-23T22:49:46.446Z,72.20
2022-09-23T22:52:13.253Z,72.30
2022-09-23T22:54:39.935Z,72.40
2022-09-23T22:57:07.349Z,72.50
2022-09-23T22:59:34.319Z,73.30
2022-09-23T23:02:01.269Z,72.60
2022-09-23T23:04:28.258Z,72.70
2022-09-23T23:06:55.065Z,72.80
2022-09-23T23:09:21.749Z,72.80
2022-09-23T23:11:48.418Z,72.90
2022-09-23T23:14:16.609Z,72.90
2022-09-23T23:16:44.037Z,73.10
2022-09-23T23:19:12.118Z,73.20
2022-09-23T23:21:38.972Z,73.30
2022-09-23T23:24:06.426Z,73.40
2022-09-23T23:26:33.705Z,73.50
2022-09-23T23:29:00.868Z,73.40
2022-09-23T23:31:28.628Z,73.50
2022-09-23T23:33:55.377Z,73.60
2022-09-23T23:36:22.747Z,73.70
2022-09-23T23:38:50.312Z,73.70
2022-09-23T23:41:18.596Z,73.80
2022-09-23T23:43:46.080Z,74.00
2022-09-23T23:46:13.586Z,74.10
2022-09-23T23:48:40.586Z,74.10
2022-09-23T23:51:08.198Z,74.20
2022-09-23T23:53:36.876Z,74.20
2022-09-23T23:56:08.785Z,74.40
2022-09-23T23:58:35.580Z,74.40
